createdAt,value
2018-07-12T00:00:34.468Z,1001.81
2018-07-12T00:01:34.467Z,1001.79
2018-07-12T00:02:34.437Z,1001.81
2018-07-12T00:03:34.450Z,1001.76
2018-07-12T00:04:34.413Z,1001.81
2018-07-12T00:05:34.413Z,1001.84
2018-07-12T00:06:34.426Z,1001.87
2018-07-12T00:07:34.386Z,1001.87
2018-07-12T00:08:34.375Z,1001.90
2018-07-12T00:09:34.407Z,1001.87
2018-07-12T00:10:34.356Z,1001.87
2018-07-12T00:11:34.454Z,1001.86
2018-07-12T00:12:34.335Z,1001.90
2018-07-12T00:13:34.315Z,1001.86
2018-07-12T00:14:34.307Z,1001.82
2018-07-12T00:15:34.326Z,1001.83
2018-07-12T00:16:34.283Z,1001.90
2018-07-12T00:17:34.289Z,1001.85
2018-07-12T00:18:34.286Z,1001.85
2018-07-12T00:19:34.277Z,1001.86
2018-07-12T00:20:34.254Z,1001.92
2018-07-12T00:21:34.230Z,1001.87
2018-07-12T00:22:34.223Z,1001.81
2018-07-12T00:23:34.217Z,1001.88
2018-07-12T00:24:34.204Z,1001.87
2018-07-12T00:25:34.196Z,1001.84
2018-07-12T00:26:34.183Z,1001.81
2018-07-12T00:27:34.214Z,1001.87
2018-07-12T00:28:34.161Z,1001.88
2018-07-12T00:29:34.164Z,1001.88
2018-07-12T00:30:34.143Z,1001.85
2018-07-12T00:31:34.133Z,1001.83
2018-07-12T00:32:34.117Z,1001.75
2018-07-12T00:33:34.118Z,1001.83
2018-07-12T00:34:34.102Z,1001.84
2018-07-12T00:35:34.081Z,1001.85
2018-07-12T00:36:34.117Z,1001.85
2018-07-12T00:37:34.121Z,1001.87
2018-07-12T00:38:34.064Z,1001.89
2018-07-12T00:39:34.056Z,1001.88
2018-07-12T00:40:34.023Z,1001.93
2018-07-12T00:41:34.043Z,1001.88
2018-07-12T00:42:34.008Z,1001.89
2018-07-12T00:43:33.997Z,1001.86
2018-07-12T00:44:34.008Z,1001.84
2018-07-12T00:45:33.969Z,1001.87
2018-07-12T00:46:33.961Z,1001.87
2018-07-12T00:47:33.952Z,1001.84
2018-07-12T00:48:33.968Z,1001.86
2018-07-12T00:49:33.939Z,1001.85
2018-07-12T00:50:33.945Z,1001.84
2018-07-12T00:51:33.924Z,1001.87
2018-07-12T00:52:33.900Z,1001.80
2018-07-12T00:53:33.885Z,1001.84
2018-07-12T00:54:33.886Z,1001.89
2018-07-12T00:55:33.866Z,1001.85
2018-07-12T00:56:33.871Z,1001.86
2018-07-12T00:57:33.847Z,1001.88
2018-07-12T00:58:33.871Z,1001.95
2018-07-12T00:59:33.832Z,1001.90
2018-07-12T01:00:33.826Z,1001.91
2018-07-12T01:01:33.802Z,1001.91
2018-07-12T01:02:33.792Z,1001.91
2018-07-12T01:03:33.779Z,1001.93
2018-07-12T01:04:33.778Z,1001.91
2018-07-12T01:05:33.756Z,1001.89
2018-07-12T01:06:33.771Z,1001.93
2018-07-12T01:07:33.733Z,1001.93
2018-07-12T01:08:33.726Z,1001.93
2018-07-12T01:09:33.742Z,1001.94
2018-07-12T01:10:33.702Z,1001.90
2018-07-12T01:11:33.703Z,1001.88
2018-07-12T01:12:33.684Z,1001.92
2018-07-12T01:13:33.672Z,1001.81
2018-07-12T01:14:33.689Z,1001.82
2018-07-12T01:15:33.651Z,1001.84
2018-07-12T01:16:33.635Z,1001.85
2018-07-12T01:17:33.632Z,1001.80
2018-07-12T01:18:33.776Z,1001.75
2018-07-12T01:19:33.616Z,1001.78
2018-07-12T01:20:33.603Z,1001.76
2018-07-12T01:21:33.580Z,1001.75
2018-07-12T01:22:33.568Z,1001.76
2018-07-12T01:23:33.573Z,1001.73
2018-07-12T01:24:33.556Z,1001.69
2018-07-12T01:25:33.593Z,1001.74
2018-07-12T01:26:33.541Z,1001.68
2018-07-12T01:27:33.520Z,1001.71
2018-07-12T01:28:33.510Z,1001.70
2018-07-12T01:29:33.503Z,1001.73
2018-07-12T01:30:33.492Z,1001.72
2018-07-12T01:31:33.484Z,1001.72
2018-07-12T01:32:33.489Z,1001.66
2018-07-12T01:33:33.457Z,1001.63
2018-07-12T01:34:33.440Z,1001.62
2018-07-12T01:35:33.446Z,1001.60
2018-07-12T01:36:33.452Z,1001.61
2018-07-12T01:37:33.454Z,1001.60
2018-07-12T01:38:33.517Z,1001.64
2018-07-12T01:39:33.395Z,1001.69
2018-07-12T01:40:33.377Z,1001.70
2018-07-12T01:41:33.429Z,1001.69
2018-07-12T01:42:33.515Z,1001.71
2018-07-12T01:43:33.381Z,1001.69
2018-07-12T01:44:33.341Z,1001.72
2018-07-12T01:45:33.321Z,1001.70
2018-07-12T01:46:33.429Z,1001.77
2018-07-12T01:47:33.330Z,1001.76
2018-07-12T01:48:33.302Z,1001.77
2018-07-12T01:49:33.288Z,1001.80
2018-07-12T01:50:33.272Z,1001.77
2018-07-12T01:51:33.300Z,1001.80
2018-07-12T01:52:33.278Z,1001.79
2018-07-12T01:53:33.263Z,1001.78
2018-07-12T01:54:33.222Z,1001.74
2018-07-12T01:55:33.215Z,1001.73
2018-07-12T01:56:33.281Z,1001.77
2018-07-12T01:57:33.292Z,1001.76
2018-07-12T01:58:33.188Z,1001.72
2018-07-12T01:59:33.165Z,1001.72
2018-07-12T02:00:33.246Z,1001.74
2018-07-12T02:01:33.158Z,1001.78
2018-07-12T02:02:33.162Z,1001.78
2018-07-12T02:03:33.154Z,1001.77
2018-07-12T02:04:33.130Z,1001.75
2018-07-12T02:05:33.118Z,1001.76
2018-07-12T02:06:33.094Z,1001.75
2018-07-12T02:07:33.079Z,1001.70
2018-07-12T02:08:33.074Z,1001.72
2018-07-12T02:09:33.066Z,1001.73
2018-07-12T02:10:33.064Z,1001.71
2018-07-12T02:11:33.056Z,1001.75
2018-07-12T02:12:33.031Z,1001.73
2018-07-12T02:13:33.035Z,1001.74
2018-07-12T02:14:33.073Z,1001.75
2018-07-12T02:15:33.001Z,1001.77
2018-07-12T02:16:32.998Z,1001.74
2018-07-12T02:17:32.988Z,1001.77
2018-07-12T02:18:32.959Z,1001.79
2018-07-12T02:19:33.000Z,1001.73
2018-07-12T02:20:32.943Z,1001.72
2018-07-12T02:21:32.938Z,1001.76
2018-07-12T02:22:32.951Z,1001.70
2018-07-12T02:23:32.912Z,1001.76
2018-07-12T02:24:32.928Z,1001.74
2018-07-12T02:25:32.886Z,1001.72
2018-07-12T02:26:32.875Z,1001.73
2018-07-12T02:27:32.877Z,1001.72
2018-07-12T02:28:32.861Z,1001.75
2018-07-12T02:29:32.846Z,1001.78
2018-07-12T02:30:32.861Z,1001.79
2018-07-12T02:31:32.821Z,1001.79
2018-07-12T02:32:32.873Z,1001.75
2018-07-12T02:33:32.818Z,1001.78
2018-07-12T02:34:32.812Z,1001.76
2018-07-12T02:35:32.824Z,1001.79
2018-07-12T02:36:32.782Z,1001.79
2018-07-12T02:37:32.757Z,1001.78
2018-07-12T02:38:32.750Z,1001.78
2018-07-12T02:39:32.734Z,1001.77
2018-07-12T02:40:32.728Z,1001.77
2018-07-12T02:41:32.717Z,1001.77
2018-07-12T02:42:32.777Z,1001.76
2018-07-12T02:43:32.757Z,1001.72
2018-07-12T02:44:32.699Z,1001.70
2018-07-12T02:45:32.669Z,1001.71
2018-07-12T02:46:32.687Z,1001.66
2018-07-12T02:47:40.187Z,1001.71
2018-07-12T02:48:32.634Z,1001.62
2018-07-12T02:49:32.626Z,1001.63
2018-07-12T02:50:32.619Z,1001.62
2018-07-12T02:51:32.629Z,1001.65
2018-07-12T02:52:32.614Z,1001.65
2018-07-12T02:53:32.590Z,1001.66
2018-07-12T02:54:32.577Z,1001.65
2018-07-12T02:55:32.564Z,1001.68
2018-07-12T02:56:32.577Z,1001.63
2018-07-12T02:57:32.547Z,1001.72
2018-07-12T02:58:32.528Z,1001.70
2018-07-12T02:59:32.533Z,1001.70
2018-07-12T03:00:32.517Z,1001.70
2018-07-12T03:01:32.497Z,1001.66
2018-07-12T03:02:32.492Z,1001.69
2018-07-12T03:03:32.480Z,1001.67
2018-07-12T03:04:32.473Z,1001.71
2018-07-12T03:05:32.468Z,1001.70
2018-07-12T03:06:32.475Z,1001.69
2018-07-12T03:07:32.462Z,1001.72
2018-07-12T03:08:32.422Z,1001.71
2018-07-12T03:09:32.409Z,1001.69
2018-07-12T03:10:32.406Z,1001.66
2018-07-12T03:11:32.395Z,1001.74
2018-07-12T03:12:32.382Z,1001.68
2018-07-12T03:13:32.374Z,1001.70
2018-07-12T03:14:32.384Z,1001.73
2018-07-12T03:15:32.353Z,1001.72
2018-07-12T03:16:33.473Z,1001.71
2018-07-12T03:17:32.425Z,1001.75
2018-07-12T03:18:32.376Z,1001.69
2018-07-12T03:19:32.301Z,1001.71
2018-07-12T03:20:32.303Z,1001.69
2018-07-12T03:21:32.276Z,1001.67
2018-07-12T03:22:32.278Z,1001.69
2018-07-12T03:23:32.293Z,1001.71
2018-07-12T03:24:32.262Z,1001.70
2018-07-12T03:25:32.240Z,1001.69
2018-07-12T03:26:32.237Z,1001.71
2018-07-12T03:27:32.239Z,1001.75
2018-07-12T03:28:32.213Z,1001.73
2018-07-12T03:29:32.219Z,1001.70
2018-07-12T03:30:32.186Z,1001.73
2018-07-12T03:31:32.194Z,1001.73
2018-07-12T03:32:32.168Z,1001.74
2018-07-12T03:33:32.157Z,1001.76
2018-07-12T03:34:32.159Z,1001.73
2018-07-12T03:35:32.134Z,1001.74
2018-07-12T03:36:32.135Z,1001.72
2018-07-12T03:37:32.146Z,1001.71
2018-07-12T03:38:32.100Z,1001.73
2018-07-12T03:39:32.086Z,1001.70
2018-07-12T03:40:32.119Z,1001.71
2018-07-12T03:41:32.097Z,1001.74
2018-07-12T03:42:32.056Z,1001.72
2018-07-12T03:43:32.043Z,1001.73
2018-07-12T03:44:32.029Z,1001.71
2018-07-12T03:45:32.027Z,1001.75
2018-07-12T03:46:32.021Z,1001.73
2018-07-12T03:47:32.031Z,1001.71
2018-07-12T03:48:31.996Z,1001.71
2018-07-12T03:49:31.976Z,1001.72
2018-07-12T03:50:31.967Z,1001.69
2018-07-12T03:51:31.991Z,1001.66
2018-07-12T03:52:31.959Z,1001.70
2018-07-12T03:53:31.938Z,1001.68
2018-07-12T03:54:31.947Z,1001.74
2018-07-12T03:55:31.927Z,1001.75
2018-07-12T03:56:31.962Z,1001.70
2018-07-12T03:57:31.928Z,1001.70
2018-07-12T03:58:31.957Z,1001.73
2018-07-12T03:59:31.872Z,1001.73
2018-07-12T04:00:31.892Z,1001.75
2018-07-12T04:01:31.889Z,1001.75
2018-07-12T04:02:31.885Z,1001.75
2018-07-12T04:03:31.892Z,1001.76
2018-07-12T04:04:31.861Z,1001.79
2018-07-12T04:05:31.819Z,1001.75
2018-07-12T04:06:31.806Z,1001.75
2018-07-12T04:07:31.868Z,1001.77
2018-07-12T04:08:31.808Z,1001.77
2018-07-12T04:09:31.779Z,1001.78
2018-07-12T04:10:31.758Z,1001.78
2018-07-12T04:11:31.771Z,1001.76
2018-07-12T04:12:31.744Z,1001.76
2018-07-12T04:13:31.823Z,1001.78
2018-07-12T04:14:31.718Z,1001.75
2018-07-12T04:15:31.707Z,1001.77
2018-07-12T04:16:31.686Z,1001.80
2018-07-12T04:17:31.673Z,1001.79
2018-07-12T04:18:31.738Z,1001.77
2018-07-12T04:19:31.693Z,1001.78
2018-07-12T04:20:31.649Z,1001.82
2018-07-12T04:21:31.657Z,1001.87
2018-07-12T04:22:31.643Z,1001.87
2018-07-12T04:23:31.652Z,1001.84
2018-07-12T04:24:31.629Z,1001.85
2018-07-12T04:25:31.596Z,1001.86
2018-07-12T04:26:31.586Z,1001.87
2018-07-12T04:27:31.588Z,1001.87
2018-07-12T04:28:31.561Z,1001.88
2018-07-12T04:29:31.551Z,1001.86
2018-07-12T04:30:31.546Z,1001.85
2018-07-12T04:31:31.528Z,1001.85
2018-07-12T04:32:31.526Z,1001.93
2018-07-12T04:33:31.516Z,1001.93
2018-07-12T04:34:31.539Z,1001.96
2018-07-12T04:35:31.496Z,1002.00
2018-07-12T04:36:31.497Z,1002.01
2018-07-12T04:37:31.469Z,1002.03
2018-07-12T04:38:31.465Z,1001.95
2018-07-12T04:39:31.467Z,1001.97
2018-07-12T04:40:31.481Z,1002.01
2018-07-12T04:41:31.420Z,1001.96
2018-07-12T04:42:31.414Z,1002.05
2018-07-12T04:43:31.399Z,1002.03
2018-07-12T04:44:31.390Z,1001.98
2018-07-12T04:45:31.399Z,1002.02
2018-07-12T04:46:31.378Z,1002.02
2018-07-12T04:47:31.362Z,1002.08
2018-07-12T04:48:31.359Z,1002.04
2018-07-12T04:49:31.329Z,1002.06
2018-07-12T04:50:31.379Z,1002.04
2018-07-12T04:51:31.326Z,1002.05
2018-07-12T04:52:31.340Z,1002.07
2018-07-12T04:53:31.289Z,1002.06
2018-07-12T04:54:31.275Z,1002.07
2018-07-12T04:55:31.275Z,1002.11
2018-07-12T04:56:31.271Z,1002.10
2018-07-12T04:57:31.270Z,1002.12
2018-07-12T04:58:31.244Z,1002.17
2018-07-12T04:59:31.222Z,1002.13
2018-07-12T05:00:31.226Z,1002.13
2018-07-12T05:01:31.249Z,1002.14
2018-07-12T05:02:31.201Z,1002.16
2018-07-12T05:03:31.181Z,1002.14
2018-07-12T05:04:31.175Z,1002.15
2018-07-12T05:05:31.164Z,1002.17
2018-07-12T05:06:31.152Z,1002.13
2018-07-12T05:07:31.159Z,1002.13
2018-07-12T05:08:31.125Z,1002.17
2018-07-12T05:09:31.135Z,1002.17
2018-07-12T05:10:31.111Z,1002.15
2018-07-12T05:11:31.139Z,1002.12
2018-07-12T05:12:31.117Z,1002.16
2018-07-12T05:13:31.090Z,1002.14
2018-07-12T05:14:31.064Z,1002.17
2018-07-12T05:15:31.062Z,1002.14
2018-07-12T05:16:31.068Z,1002.15
2018-07-12T05:17:31.042Z,1002.15
2018-07-12T05:18:31.021Z,1002.17
2018-07-12T05:19:31.023Z,1002.22
2018-07-12T05:20:30.993Z,1002.22
2018-07-12T05:21:30.994Z,1002.13
2018-07-12T05:22:31.012Z,1002.20
2018-07-12T05:23:30.964Z,1002.20
2018-07-12T05:24:30.974Z,1002.12
2018-07-12T05:25:30.945Z,1002.15
2018-07-12T05:26:30.943Z,1002.15
2018-07-12T05:27:30.921Z,1002.18
2018-07-12T05:28:30.937Z,1002.18
2018-07-12T05:29:30.902Z,1002.12
2018-07-12T05:30:30.902Z,1002.20
2018-07-12T05:31:30.902Z,1002.17
2018-07-12T05:32:30.889Z,1002.19
2018-07-12T05:33:30.854Z,1002.21
2018-07-12T05:34:30.852Z,1002.26
2018-07-12T05:35:30.836Z,1002.24
2018-07-12T05:36:31.861Z,1002.24
2018-07-12T05:37:30.847Z,1002.22
2018-07-12T05:38:30.843Z,1002.27
2018-07-12T05:39:30.793Z,1002.25
2018-07-12T05:40:30.778Z,1002.27
2018-07-12T05:41:30.780Z,1002.25
2018-07-12T05:42:30.785Z,1002.27
2018-07-12T05:43:30.782Z,1002.26
2018-07-12T05:44:30.739Z,1002.25
2018-07-12T05:45:30.735Z,1002.26
2018-07-12T05:46:30.717Z,1002.29
2018-07-12T05:47:30.714Z,1002.33
2018-07-12T05:48:30.700Z,1002.29
2018-07-12T05:49:30.700Z,1002.32
2018-07-12T05:50:30.675Z,1002.33
2018-07-12T05:51:30.663Z,1002.34
2018-07-12T05:52:30.652Z,1002.35
2018-07-12T05:53:30.648Z,1002.35
2018-07-12T05:54:30.663Z,1002.37
2018-07-12T05:55:30.637Z,1002.34
2018-07-12T05:56:30.624Z,1002.39
2018-07-12T05:57:30.618Z,1002.40
2018-07-12T05:58:30.587Z,1002.35
2018-07-12T05:59:30.594Z,1002.40
2018-07-12T06:00:30.571Z,1002.42
2018-07-12T06:01:30.567Z,1002.38
2018-07-12T06:02:30.553Z,1002.44
2018-07-12T06:03:30.592Z,1002.43
2018-07-12T06:04:30.628Z,1002.36
2018-07-12T06:05:30.610Z,1002.43
2018-07-12T06:06:30.507Z,1002.43
2018-07-12T06:07:30.507Z,1002.43
2018-07-12T06:08:30.493Z,1002.47
2018-07-12T06:09:30.477Z,1002.44
2018-07-12T06:10:32.453Z,1002.46
2018-07-12T06:11:30.467Z,1002.50
2018-07-12T06:12:30.466Z,1002.53
2018-07-12T06:13:30.433Z,1002.50
2018-07-12T06:14:30.437Z,1002.53
2018-07-12T06:15:30.406Z,1002.56
2018-07-12T06:16:30.422Z,1002.58
2018-07-12T06:17:30.388Z,1002.59
2018-07-12T06:18:30.379Z,1002.57
2018-07-12T06:19:30.367Z,1002.59
2018-07-12T06:20:30.366Z,1002.57
2018-07-12T06:21:30.369Z,1002.61
2018-07-12T06:22:30.351Z,1002.62
2018-07-12T06:23:30.331Z,1002.62
2018-07-12T06:24:30.360Z,1002.64
2018-07-12T06:25:30.370Z,1002.65
2018-07-12T06:26:30.326Z,1002.71
2018-07-12T06:27:30.326Z,1002.70
2018-07-12T06:28:30.273Z,1002.68
2018-07-12T06:29:30.255Z,1002.67
2018-07-12T06:30:30.257Z,1002.69
2018-07-12T06:31:30.261Z,1002.72
2018-07-12T06:32:30.243Z,1002.68
2018-07-12T06:33:30.218Z,1002.69
2018-07-12T06:34:30.206Z,1002.69
2018-07-12T06:35:30.199Z,1002.75
2018-07-12T06:36:30.186Z,1002.76
2018-07-12T06:37:30.167Z,1002.75
2018-07-12T06:38:30.205Z,1002.78
2018-07-12T06:39:30.172Z,1002.76
2018-07-12T06:40:30.154Z,1002.74
2018-07-12T06:41:30.129Z,1002.72
2018-07-12T06:42:30.186Z,1002.79
2018-07-12T06:43:30.128Z,1002.77
2018-07-12T06:44:30.096Z,1002.72
2018-07-12T06:45:30.156Z,1002.71
2018-07-12T06:46:30.112Z,1002.72
2018-07-12T06:47:30.070Z,1002.73
2018-07-12T06:48:30.072Z,1002.71
2018-07-12T06:49:30.067Z,1002.73
2018-07-12T06:50:30.054Z,1002.77
2018-07-12T06:51:30.018Z,1002.74
2018-07-12T06:52:30.012Z,1002.79
2018-07-12T06:53:30.016Z,1002.74
2018-07-12T06:54:29.985Z,1002.74
2018-07-12T06:55:29.984Z,1002.78
2018-07-12T06:56:29.961Z,1002.76
2018-07-12T06:57:29.952Z,1002.81
2018-07-12T06:58:29.963Z,1002.84
2018-07-12T06:59:29.931Z,1002.79
2018-07-12T07:00:29.973Z,1002.79
2018-07-12T07:01:29.905Z,1002.85
2018-07-12T07:02:29.915Z,1002.82
2018-07-12T07:03:29.891Z,1002.89
2018-07-12T07:04:29.888Z,1002.88
2018-07-12T07:05:29.868Z,1002.87
2018-07-12T07:06:29.900Z,1002.89
2018-07-12T07:07:29.874Z,1002.89
2018-07-12T07:08:29.849Z,1002.89
2018-07-12T07:09:30.828Z,1002.91
2018-07-12T07:10:29.838Z,1002.85
2018-07-12T07:11:29.851Z,1002.91
2018-07-12T07:12:29.828Z,1002.94
2018-07-12T07:13:29.786Z,1002.92
2018-07-12T07:14:29.773Z,1002.96
2018-07-12T07:15:29.769Z,1002.97
2018-07-12T07:16:29.756Z,1002.99
2018-07-12T07:17:29.745Z,1003.00
2018-07-12T07:18:29.732Z,1002.99
2018-07-12T07:19:29.713Z,1003.02
2018-07-12T07:20:29.712Z,1003.00
2018-07-12T07:21:29.687Z,1003.05
2018-07-12T07:22:29.716Z,1003.09
2018-07-12T07:23:29.683Z,1003.10
2018-07-12T07:24:29.666Z,1003.14
2018-07-12T07:25:29.682Z,1003.17
2018-07-12T07:26:29.646Z,1003.12
2018-07-12T07:27:29.655Z,1003.13
2018-07-12T07:28:29.616Z,1003.16
2018-07-12T07:29:29.624Z,1003.22
2018-07-12T07:30:29.596Z,1003.24
2018-07-12T07:31:29.593Z,1003.26
2018-07-12T07:32:29.655Z,1003.23
2018-07-12T07:33:29.579Z,1003.32
2018-07-12T07:34:29.557Z,1003.29
2018-07-12T07:35:29.595Z,1003.29
2018-07-12T07:36:29.548Z,1003.32
2018-07-12T07:37:29.572Z,1003.28
2018-07-12T07:38:29.540Z,1003.29
2018-07-12T07:39:29.499Z,1003.25
2018-07-12T07:40:29.513Z,1003.25
2018-07-12T07:41:29.478Z,1003.25
2018-07-12T07:42:29.486Z,1003.26
2018-07-12T07:43:29.457Z,1003.31
2018-07-12T07:44:29.453Z,1003.33
2018-07-12T07:45:29.440Z,1003.34
2018-07-12T07:46:29.473Z,1003.41
2018-07-12T07:47:29.433Z,1003.36
2018-07-12T07:48:29.414Z,1003.38
2018-07-12T07:49:29.450Z,1003.35
2018-07-12T07:50:29.401Z,1003.36
2018-07-12T07:51:29.368Z,1003.38
2018-07-12T07:52:29.366Z,1003.32
2018-07-12T07:53:29.349Z,1003.35
2018-07-12T07:54:29.401Z,1003.36
2018-07-12T07:55:29.327Z,1003.36
2018-07-12T07:56:29.318Z,1003.38
2018-07-12T07:57:29.333Z,1003.31
2018-07-12T07:58:29.307Z,1003.27
2018-07-12T07:59:29.302Z,1003.31
2018-07-12T08:00:29.326Z,1003.33
2018-07-12T08:01:29.262Z,1003.33
2018-07-12T08:02:29.252Z,1003.33
2018-07-12T08:03:29.359Z,1003.28
2018-07-12T08:04:29.231Z,1003.30
2018-07-12T08:05:29.225Z,1003.34
2018-07-12T08:06:29.217Z,1003.33
2018-07-12T08:07:29.202Z,1003.34
2018-07-12T08:08:29.199Z,1003.37
2018-07-12T08:09:29.263Z,1003.38
2018-07-12T08:10:29.209Z,1003.42
2018-07-12T08:11:29.153Z,1003.42
2018-07-12T08:12:29.146Z,1003.41
2018-07-12T08:13:29.145Z,1003.42
2018-07-12T08:14:29.136Z,1003.45
2018-07-12T08:15:29.117Z,1003.43
2018-07-12T08:16:29.107Z,1003.42
2018-07-12T08:17:29.099Z,1003.47
2018-07-12T08:18:29.086Z,1003.39
2018-07-12T08:19:29.081Z,1003.43
2018-07-12T08:20:29.063Z,1003.45
2018-07-12T08:21:29.119Z,1003.48
2018-07-12T08:22:29.045Z,1003.49
2018-07-12T08:23:29.043Z,1003.45
2018-07-12T08:24:29.039Z,1003.40
2018-07-12T08:25:29.012Z,1003.50
2018-07-12T08:26:29.007Z,1003.55
2018-07-12T08:27:28.993Z,1003.54
2018-07-12T08:28:28.981Z,1003.74
2018-07-12T08:29:28.984Z,1003.71
2018-07-12T08:30:29.010Z,1003.79
2018-07-12T08:31:28.978Z,1003.77
2018-07-12T08:32:28.959Z,1003.87
2018-07-12T08:33:28.945Z,1003.84
2018-07-12T08:34:28.908Z,1003.90
2018-07-12T08:35:28.907Z,1003.93
2018-07-12T08:36:28.901Z,1003.72
2018-07-12T08:37:28.879Z,1003.52
2018-07-12T08:38:28.875Z,1003.43
2018-07-12T08:39:28.862Z,1003.40
2018-07-12T08:40:28.941Z,1003.47
2018-07-12T08:41:28.844Z,1003.81
2018-07-12T08:42:28.925Z,1003.83
2018-07-12T08:43:28.919Z,1003.85
2018-07-12T08:44:28.914Z,1003.86
2018-07-12T08:45:28.810Z,1003.89
2018-07-12T08:46:28.844Z,1003.86
2018-07-12T08:47:28.833Z,1003.91
2018-07-12T08:48:28.847Z,1003.86
2018-07-12T08:49:28.769Z,1003.88
2018-07-12T08:50:28.747Z,1003.85
2018-07-12T08:51:28.746Z,1003.85
2018-07-12T08:52:28.770Z,1003.84
2018-07-12T08:53:28.714Z,1003.82
2018-07-12T08:54:28.784Z,1003.82
2018-07-12T08:55:28.691Z,1003.83
2018-07-12T08:56:28.683Z,1003.80
2018-07-12T08:57:28.678Z,1003.73
2018-07-12T08:58:28.658Z,1003.66
2018-07-12T08:59:28.669Z,1003.58
2018-07-12T09:00:28.656Z,1003.59
2018-07-12T09:01:28.640Z,1003.57
2018-07-12T09:02:28.635Z,1003.61
2018-07-12T09:03:28.613Z,1003.53
2018-07-12T09:04:28.612Z,1003.42
2018-07-12T09:05:28.628Z,1003.38
2018-07-12T09:06:28.588Z,1003.43
2018-07-12T09:07:28.585Z,1003.59
2018-07-12T09:08:28.567Z,1003.60
2018-07-12T09:09:28.581Z,1003.64
2018-07-12T09:10:28.544Z,1003.67
2018-07-12T09:11:28.567Z,1003.73
2018-07-12T09:12:28.568Z,1003.75
2018-07-12T09:13:28.539Z,1003.80
2018-07-12T09:14:28.499Z,1003.81
2018-07-12T09:15:28.496Z,1003.85
2018-07-12T09:16:28.532Z,1003.83
2018-07-12T09:17:28.464Z,1003.87
2018-07-12T09:18:28.455Z,1003.88
2018-07-12T09:19:28.450Z,1003.93
2018-07-12T09:20:28.438Z,1003.98
2018-07-12T09:21:28.460Z,1004.02
2018-07-12T09:22:28.448Z,1004.06
2018-07-12T09:23:28.401Z,1004.09
2018-07-12T09:24:28.393Z,1004.08
2018-07-12T09:25:28.451Z,1004.11
2018-07-12T09:26:28.397Z,1004.14
2018-07-12T09:27:28.407Z,1004.12
2018-07-12T09:28:28.397Z,1003.88
2018-07-12T09:29:28.347Z,1003.86
2018-07-12T09:30:28.346Z,1004.03
2018-07-12T09:31:28.328Z,1003.77
2018-07-12T09:32:28.324Z,1003.95
2018-07-12T09:33:28.338Z,1003.81
2018-07-12T09:34:28.333Z,1004.02
2018-07-12T09:35:28.393Z,1004.03
2018-07-12T09:36:28.276Z,1003.99
2018-07-12T09:37:28.349Z,1003.96
2018-07-12T09:38:28.279Z,1003.91
2018-07-12T09:39:28.262Z,1003.82
2018-07-12T09:40:28.235Z,1003.77
2018-07-12T09:41:28.227Z,1003.64
2018-07-12T09:42:28.219Z,1003.66
2018-07-12T09:43:28.210Z,1003.59
2018-07-12T09:44:28.198Z,1003.57
2018-07-12T09:45:28.195Z,1003.55
2018-07-12T09:46:28.189Z,1003.64
2018-07-12T09:47:28.181Z,1003.60
2018-07-12T09:48:28.153Z,1003.60
2018-07-12T09:49:28.175Z,1003.66
2018-07-12T09:50:28.148Z,1003.60
2018-07-12T09:51:28.132Z,1003.60
2018-07-12T09:52:28.115Z,1003.58
2018-07-12T09:53:28.107Z,1003.61
2018-07-12T09:54:28.104Z,1003.61
2018-07-12T09:55:28.095Z,1003.68
2018-07-12T09:56:28.093Z,1003.59
2018-07-12T09:57:28.066Z,1003.61
2018-07-12T09:58:28.057Z,1003.63
2018-07-12T09:59:28.182Z,1003.67
2018-07-12T10:00:28.058Z,1003.61
2018-07-12T10:01:28.020Z,1003.65
2018-07-12T10:02:28.012Z,1003.66
2018-07-12T10:03:28.005Z,1003.63
2018-07-12T10:04:27.992Z,1003.69
2018-07-12T10:05:27.991Z,1003.66
2018-07-12T10:06:27.997Z,1003.68
2018-07-12T10:07:27.953Z,1003.69
2018-07-12T10:08:27.952Z,1003.74
2018-07-12T10:09:27.952Z,1003.73
2018-07-12T10:10:27.981Z,1003.69
2018-07-12T10:11:27.966Z,1003.68
2018-07-12T10:12:27.904Z,1003.69
2018-07-12T10:13:27.900Z,1003.71
2018-07-12T10:14:27.882Z,1003.68
2018-07-12T10:15:27.877Z,1003.60
2018-07-12T10:16:27.864Z,1003.65
2018-07-12T10:17:27.904Z,1003.62
2018-07-12T10:18:27.854Z,1003.68
2018-07-12T10:19:27.833Z,1003.69
2018-07-12T10:20:27.827Z,1003.65
2018-07-12T10:21:27.844Z,1003.71
2018-07-12T10:22:27.800Z,1003.70
2018-07-12T10:23:27.810Z,1003.77
2018-07-12T10:24:27.796Z,1003.72
2018-07-12T10:25:27.769Z,1003.73
2018-07-12T10:26:27.771Z,1003.76
2018-07-12T10:27:27.777Z,1003.71
2018-07-12T10:28:27.739Z,1003.72
2018-07-12T10:29:27.727Z,1003.68
2018-07-12T10:30:27.716Z,1003.72
2018-07-12T10:31:27.706Z,1003.75
2018-07-12T10:32:27.697Z,1003.71
2018-07-12T10:33:27.689Z,1003.72
2018-07-12T10:34:27.667Z,1003.72
2018-07-12T10:35:27.669Z,1003.71
2018-07-12T10:36:27.652Z,1003.70
2018-07-12T10:37:27.672Z,1003.73
2018-07-12T10:38:27.678Z,1003.76
2018-07-12T10:39:27.623Z,1003.76
2018-07-12T10:40:27.606Z,1003.79
2018-07-12T10:41:27.596Z,1003.80
2018-07-12T10:42:27.583Z,1003.79
2018-07-12T10:43:27.594Z,1003.82
2018-07-12T10:44:27.606Z,1003.78
2018-07-12T10:45:27.566Z,1003.70
2018-07-12T10:46:27.544Z,1003.66
2018-07-12T10:47:27.544Z,1003.68
2018-07-12T10:48:27.557Z,1003.63
2018-07-12T10:49:27.515Z,1003.66
2018-07-12T10:50:27.506Z,1003.66
2018-07-12T10:51:27.494Z,1003.62
2018-07-12T10:52:27.480Z,1003.64
2018-07-12T10:53:27.513Z,1003.60
2018-07-12T10:54:27.461Z,1003.61
2018-07-12T10:55:27.455Z,1003.61
2018-07-12T10:56:27.453Z,1003.61
2018-07-12T10:57:27.432Z,1003.61
2018-07-12T10:58:27.461Z,1003.60
2018-07-12T10:59:27.453Z,1003.57
2018-07-12T11:00:27.419Z,1003.52
2018-07-12T11:01:27.388Z,1003.53
2018-07-12T11:02:27.383Z,1003.50
2018-07-12T11:03:27.380Z,1003.50
2018-07-12T11:04:27.423Z,1003.50
2018-07-12T11:05:27.348Z,1003.49
2018-07-12T11:06:27.336Z,1003.41
2018-07-12T11:07:27.329Z,1003.41
2018-07-12T11:08:27.346Z,1003.43
2018-07-12T11:09:27.314Z,1003.45
2018-07-12T11:10:27.331Z,1003.44
2018-07-12T11:11:27.309Z,1003.49
2018-07-12T11:12:27.274Z,1003.67
2018-07-12T11:13:27.264Z,1003.52
2018-07-12T11:14:27.267Z,1003.65
2018-07-12T11:15:27.247Z,1003.92
2018-07-12T11:16:27.231Z,1004.03
2018-07-12T11:17:27.222Z,1004.11
2018-07-12T11:18:27.245Z,1004.13
2018-07-12T11:19:27.237Z,1004.19
2018-07-12T11:20:27.239Z,1004.22
2018-07-12T11:21:27.181Z,1004.22
2018-07-12T11:22:27.184Z,1003.77
2018-07-12T11:23:27.156Z,1004.27
2018-07-12T11:24:27.149Z,1004.22
2018-07-12T11:25:27.145Z,1003.94
2018-07-12T11:26:27.132Z,1004.08
2018-07-12T11:27:27.125Z,1003.74
2018-07-12T11:28:27.162Z,1004.25
2018-07-12T11:29:27.104Z,1004.31
2018-07-12T11:30:27.123Z,1004.34
2018-07-12T11:31:27.079Z,1004.40
2018-07-12T11:32:27.074Z,1004.36
2018-07-12T11:33:27.066Z,1003.80
2018-07-12T11:34:27.063Z,1003.72
2018-07-12T11:35:27.044Z,1003.67
2018-07-12T11:36:27.040Z,1003.66
2018-07-12T11:37:27.033Z,1003.59
2018-07-12T11:38:27.015Z,1003.55
2018-07-12T11:39:27.012Z,1003.75
2018-07-12T11:40:27.009Z,1003.58
2018-07-12T11:41:27.021Z,1003.57
2018-07-12T11:42:26.994Z,1003.51
2018-07-12T11:43:26.966Z,1003.81
2018-07-12T11:44:26.960Z,1003.69
2018-07-12T11:45:26.948Z,1003.55
2018-07-12T11:46:26.964Z,1003.51
2018-07-12T11:47:26.960Z,1003.54
2018-07-12T11:48:26.923Z,1003.57
2018-07-12T11:49:26.909Z,1003.55
2018-07-12T11:50:26.904Z,1003.51
2018-07-12T11:51:26.906Z,1003.38
2018-07-12T11:52:26.917Z,1003.42
2018-07-12T11:53:26.870Z,1003.40
2018-07-12T11:54:26.873Z,1003.96
2018-07-12T11:55:26.861Z,1004.03
2018-07-12T11:56:26.841Z,1004.08
2018-07-12T11:57:26.829Z,1003.97
2018-07-12T11:58:26.828Z,1003.45
2018-07-12T11:59:26.819Z,1003.46
2018-07-12T12:00:26.812Z,1003.37
2018-07-12T12:01:26.915Z,1003.55
2018-07-12T12:02:26.788Z,1003.37
2018-07-12T12:03:26.878Z,1003.33
2018-07-12T12:04:26.759Z,1003.29
2018-07-12T12:05:26.759Z,1003.31